Time;durP1;ratioP1;P1;durP2;ratioP2;P2;SDS_P1;SDS_P2;PMS_P1;PMS_P2;Temp;Humidity;BMP_temperature;BMP_pressure;BME280_temperature;BME280_humidity;BME280_pressure;Samples;Min_cycle;Max_cycle;Signal;HPM_P1;HPM_P2
2022/05/31 00:00:26;;;;;;;8.68;5.55;;;17.30;66.90;;;;;;4996218;28;20105;-63
2022/05/31 00:02:54;;;;;;;7.30;5.32;;;17.30;66.60;;;;;;4997436;28;20033;-58
2022/05/31 00:05:19;;;;;;;7.82;6.20;;;17.30;66.50;;;;;;4995640;28;20034;-62
2022/05/31 00:07:45;;;;;;;9.93;5.07;;;17.30;66.50;;;;;;4995666;28;20399;-57
2022/05/31 00:10:13;;;;;;;7.32;5.20;;;17.30;66.20;;;;;;4995992;28;20038;-56
2022/05/31 00:12:40;;;;;;;7.65;5.82;;;17.30;66.40;;;;;;5012363;28;20080;-62
2022/05/31 00:15:07;;;;;;;9.52;5.38;;;17.20;67.00;;;;;;5015391;28;20034;-64
2022/05/31 00:17:33;;;;;;;7.95;5.57;;;17.20;66.40;;;;;;5015517;28;20124;-59
2022/05/31 00:19:59;;;;;;;7.80;5.07;;;17.20;66.30;;;;;;5015435;28;20125;-63
2022/05/31 00:22:26;;;;;;;9.80;5.80;;;17.20;66.50;;;;;;5000792;28;20073;-59
2022/05/31 00:24:53;;;;;;;10.18;5.72;;;17.20;66.50;;;;;;4995925;28;20035;-56
2022/05/31 00:27:23;;;;;;;8.32;5.00;;;17.20;66.30;;;;;;4995695;28;20034;-63
2022/05/31 00:29:50;;;;;;;10.45;5.78;;;17.20;66.40;;;;;;4995498;28;20889;-59
2022/05/31 00:32:21;;;;;;;9.57;5.60;;;17.10;66.40;;;;;;5006385;28;20125;-61
2022/05/31 00:34:49;;;;;;;8.50;5.23;;;17.10;66.90;;;;;;5015373;28;20018;-59
2022/05/31 00:37:15;;;;;;;8.48;5.22;;;17.10;66.40;;;;;;5014768;28;20100;-59
2022/05/31 00:39:41;;;;;;;6.72;5.40;;;17.10;66.40;;;;;;5015075;28;20041;-64
2022/05/31 00:42:11;;;;;;;9.05;5.82;;;17.10;66.60;;;;;;5005023;28;20030;-59
2022/05/31 00:44:37;;;;;;;8.05;5.20;;;17.10;66.50;;;;;;4995296;28;20019;-58
2022/05/31 00:47:14;;;;;;;6.38;5.00;;;17.10;66.70;;;;;;4995448;28;20034;-58
2022/05/31 00:49:45;;;;;;;6.38;4.97;;;17.10;66.50;;;;;;4995514;28;20480;-60
2022/05/31 00:52:14;;;;;;;9.77;5.88;;;17.00;66.70;;;;;;5004062;28;20056;-63
2022/05/31 00:54:45;;;;;;;9.73;5.93;;;17.00;66.60;;;;;;5015112;28;20037;-59
2022/05/31 00:57:12;;;;;;;8.00;5.15;;;17.00;66.70;;;;;;5014682;28;20471;-63
2022/05/31 00:59:43;;;;;;;10.88;5.72;;;17.00;66.50;;;;;;5014881;28;20029;-59
2022/05/31 01:02:11;;;;;;;7.82;5.10;;;17.00;66.80;;;;;;5005145;28;20038;-59
2022/05/31 01:04:41;;;;;;;9.70;4.95;;;17.00;67.30;;;;;;4995119;28;20042;-61
2022/05/31 01:07:08;;;;;;;5.82;4.57;;;17.00;66.70;;;;;;4994450;28;20065;-64
2022/05/31 01:09:34;;;;;;;8.70;4.60;;;16.90;67.10;;;;;;4995044;28;20027;-63
2022/05/31 01:12:03;;;;;;;8.00;5.38;;;16.80;67.30;;;;;;5002038;28;20565;-60
2022/05/31 01:14:29;;;;;;;8.65;5.32;;;16.90;67.80;;;;;;5014390;28;20034;-63
2022/05/31 01:17:04;;;;;;;9.95;5.55;;;16.90;66.80;;;;;;5013624;28;20368;-63
2022/05/31 01:22:17;;;;;;;9.10;5.80;;;16.90;67.70;;;;;;5004608;28;20084;-59
2022/05/31 01:24:51;;;;;;;6.95;5.22;;;16.80;67.40;;;;;;4994730;28;20038;-60
2022/05/31 01:27:46;;;;;;;8.05;5.20;;;16.90;66.80;;;;;;4994696;28;20042;-58
2022/05/31 01:30:13;;;;;;;8.50;5.15;;;16.90;66.70;;;;;;4994553;28;20022;-62
2022/05/31 01:32:56;;;;;;;10.93;6.15;;;16.80;68.10;;;;;;5001545;28;20090;-57
2022/05/31 01:35:27;;;;;;;9.00;5.70;;;16.80;68.00;;;;;;5013867;28;20044;-58
2022/05/31 01:38:05;;;;;;;8.85;5.35;;;16.80;67.50;;;;;;5013826;28;20398;-62
2022/05/31 01:41:04;;;;;;;7.75;6.22;;;16.80;68.00;;;;;;5014142;28;20084;-59
2022/05/31 01:43:29;;;;;;;10.15;6.65;;;16.80;68.80;;;;;;4991612;28;20431;-57
2022/05/31 01:46:01;;;;;;;8.35;5.80;;;16.70;68.90;;;;;;4994323;28;20507;-59
2022/05/31 01:48:30;;;;;;;11.95;6.93;;;16.70;68.30;;;;;;4994156;28;20522;-57
2022/05/31 01:50:56;;;;;;;12.73;6.03;;;16.70;68.10;;;;;;4993954;28;20101;-56
2022/05/31 01:53:22;;;;;;;10.13;5.45;;;16.70;67.90;;;;;;5007855;28;20112;-57
2022/05/31 01:55:48;;;;;;;11.48;5.35;;;16.70;68.10;;;;;;5013455;28;20483;-56
2022/05/31 01:58:22;;;;;;;16.08;6.85;;;16.60;67.90;;;;;;5013617;28;20493;-58
2022/05/31 02:00:48;;;;;;;13.88;7.28;;;16.60;68.40;;;;;;5013793;28;20069;-58
2022/05/31 02:03:16;;;;;;;11.60;6.43;;;16.60;69.00;;;;;;5001946;28;20062;-58
2022/05/31 02:05:51;;;;;;;10.13;6.85;;;16.60;69.80;;;;;;4993432;28;20030;-62
2022/05/31 02:08:19;;;;;;;9.93;6.43;;;16.60;70.00;;;;;;5013679;28;20038;-63
2022/05/31 02:10:45;;;;;;;11.18;6.07;;;16.60;69.10;;;;;;5013650;28;20121;-62
2022/05/31 02:13:12;;;;;;;9.25;6.20;;;16.60;69.20;;;;;;5013388;28;20045;-58
2022/05/31 02:15:38;;;;;;;9.60;6.13;;;16.60;69.10;;;;;;5013646;28;20050;-59
2022/05/31 02:18:04;;;;;;;7.60;6.20;;;16.60;69.30;;;;;;4995831;28;20105;-60
2022/05/31 02:20:29;;;;;;;9.98;6.28;;;16.60;69.10;;;;;;5005763;28;20062;-63
2022/05/31 02:22:55;;;;;;;11.93;5.45;;;16.60;68.90;;;;;;5013332;28;20069;-59
2022/05/31 02:25:21;;;;;;;10.05;5.90;;;16.50;69.00;;;;;;5013342;28;20037;-56
2022/05/31 02:27:46;;;;;;;8.50;5.47;;;16.50;69.40;;;;;;4999066;28;20035;-61
2022/05/31 02:30:12;;;;;;;7.95;5.50;;;16.50;69.10;;;;;;4993528;28;20092;-60
2022/05/31 02:32:38;;;;;;;9.95;5.75;;;16.50;69.00;;;;;;4993619;28;20074;-56
2022/05/31 02:35:06;;;;;;;9.82;5.80;;;16.50;69.20;;;;;;4993410;28;20054;-58
2022/05/31 02:37:32;;;;;;;8.27;4.90;;;16.50;69.10;;;;;;5004967;28;20491;-57
2022/05/31 02:39:58;;;;;;;8.10;5.40;;;16.50;69.30;;;;;;5012385;28;20383;-59
2022/05/31 02:42:23;;;;;;;8.13;5.50;;;16.50;69.70;;;;;;5013272;28;20475;-64
2022/05/31 02:44:51;;;;;;;8.73;5.47;;;16.50;69.00;;;;;;5013190;28;20507;-59
2022/05/31 02:47:17;;;;;;;7.97;4.50;;;16.50;68.80;;;;;;5004069;28;20045;-57
2022/05/31 02:49:45;;;;;;;10.00;5.38;;;16.50;69.40;;;;;;4993356;28;20480;-59
2022/05/31 02:52:10;;;;;;;8.27;5.05;;;16.40;69.40;;;;;;4993613;28;20043;-56
2022/05/31 02:54:36;;;;;;;7.78;4.80;;;16.40;70.10;;;;;;5000360;28;20123;-57
2022/05/31 02:57:02;;;;;;;6.13;4.50;;;16.30;70.20;;;;;;5013156;28;20034;-63
2022/05/31 02:59:27;;;;;;;9.95;5.22;;;16.30;70.80;;;;;;5012802;28;20038;-62
2022/05/31 03:01:53;;;;;;;7.47;4.90;;;16.30;70.90;;;;;;5012746;28;20065;-57
2022/05/31 03:04:19;;;;;;;7.18;4.57;;;16.30;70.90;;;;;;5009302;28;20472;-63
2022/05/31 03:06:45;;;;;;;6.10;4.78;;;16.40;71.00;;;;;;4976103;28;20023;-56
2022/05/31 03:09:11;;;;;;;9.27;5.80;;;16.30;72.00;;;;;;4993486;28;20037;-58
2022/05/31 03:11:49;;;;;;;9.90;5.25;;;16.40;70.80;;;;;;4993386;28;20535;-59
2022/05/31 03:14:21;;;;;;;9.73;4.93;;;16.40;70.30;;;;;;4994968;28;20035;-62
2022/05/31 03:16:49;;;;;;;8.60;5.53;;;16.30;70.20;;;;;;5012824;28;20040;-59
2022/05/31 03:19:19;;;;;;;9.80;5.07;;;16.40;70.10;;;;;;4995295;28;20395;-58
2022/05/31 03:21:55;;;;;;;10.18;5.53;;;16.30;70.20;;;;;;4993361;28;20491;-59
2022/05/31 03:24:27;;;;;;;19.83;6.60;;;16.30;70.10;;;;;;4992969;28;20042;-58
2022/05/31 03:26:55;;;;;;;8.15;5.75;;;16.40;70.30;;;;;;5008291;28;20022;-62
2022/05/31 03:29:21;;;;;;;6.53;5.35;;;16.50;69.70;;;;;;5005668;28;20372;-61
2022/05/31 03:31:46;;;;;;;5.97;5.05;;;16.50;69.30;;;;;;4999097;28;20510;-55
2022/05/31 03:34:12;;;;;;;9.68;5.07;;;16.60;69.10;;;;;;5012538;28;20030;-62
2022/05/31 03:36:38;;;;;;;8.25;5.82;;;16.60;69.30;;;;;;5011422;28;20540;-62
2022/05/31 03:39:04;;;;;;;9.82;6.18;;;16.50;69.10;;;;;;5009398;28;20041;-58
2022/05/31 03:41:33;;;;;;;11.98;5.80;;;16.60;69.00;;;;;;5015992;28;20418;-60
2022/05/31 03:43:59;;;;;;;7.75;5.57;;;16.60;68.70;;;;;;5015901;28;20426;-58
2022/05/31 03:46:25;;;;;;;8.23;5.93;;;16.60;68.60;;;;;;5014730;28;20026;-61
2022/05/31 03:48:50;;;;;;;6.82;5.53;;;16.60;68.60;;;;;;5008023;28;20498;-62
2022/05/31 03:51:16;;;;;;;10.85;5.80;;;16.60;68.50;;;;;;5007957;28;20038;-56
2022/05/31 03:53:41;;;;;;;8.13;5.60;;;16.70;68.60;;;;;;5015844;28;20049;-62
2022/05/31 03:56:10;;;;;;;8.35;5.13;;;16.60;68.50;;;;;;5005645;28;20434;-58
2022/05/31 03:58:36;;;;;;;9.13;5.90;;;16.60;68.40;;;;;;4996363;28;20085;-56
2022/05/31 04:01:03;;;;;;;8.95;5.78;;;16.60;68.40;;;;;;4995682;28;20387;-56
2022/05/31 04:03:28;;;;;;;8.90;5.65;;;16.60;68.60;;;;;;4996423;28;20022;-58
2022/05/31 04:05:54;;;;;;;9.10;5.18;;;16.60;68.90;;;;;;5003132;28;20034;-57
2022/05/31 04:08:20;;;;;;;7.05;5.30;;;16.60;68.70;;;;;;5015292;28;20121;-53
2022/05/31 04:10:47;;;;;;;11.30;5.30;;;16.60;68.70;;;;;;5015774;28;20081;-52
2022/05/31 04:13:15;;;;;;;8.70;5.45;;;16.60;68.80;;;;;;5015471;28;20068;-60
2022/05/31 04:15:41;;;;;;;8.20;5.13;;;16.60;68.80;;;;;;5011110;28;20034;-55
2022/05/31 04:18:08;;;;;;;6.63;5.47;;;16.60;68.70;;;;;;4996189;28;20379;-58
2022/05/31 04:20:37;;;;;;;9.95;5.60;;;16.60;68.90;;;;;;4995579;28;20180;-61
2022/05/31 04:25:47;;;;;;;6.22;5.18;;;16.60;68.90;;;;;;5000360;28;20065;-58
2022/05/31 04:28:12;;;;;;;9.70;6.05;;;16.50;69.00;;;;;;5015494;28;20471;-60
2022/05/31 04:30:42;;;;;;;10.95;5.57;;;16.60;69.20;;;;;;5014677;28;20038;-61
2022/05/31 04:33:07;;;;;;;9.77;6.35;;;16.60;69.30;;;;;;5015194;28;20026;-59
2022/05/31 04:35:33;;;;;;;7.43;5.30;;;16.50;69.10;;;;;;5012617;28;20046;-61
2022/05/31 04:37:58;;;;;;;7.25;5.38;;;16.60;69.20;;;;;;4995831;28;20038;-56
2022/05/31 04:40:24;;;;;;;11.65;5.30;;;16.50;69.30;;;;;;4977983;28;20094;-54
2022/05/31 04:42:52;;;;;;;7.70;5.35;;;16.50;69.30;;;;;;4996255;28;20054;-57
2022/05/31 04:45:17;;;;;;;8.95;5.43;;;16.50;69.10;;;;;;4995146;28;20455;-56
2022/05/31 04:47:43;;;;;;;10.68;5.55;;;16.50;69.10;;;;;;4995223;28;20491;-53
2022/05/31 04:50:09;;;;;;;6.78;4.65;;;16.50;69.30;;;;;;4995344;28;20036;-55
2022/05/31 04:52:34;;;;;;;7.35;4.95;;;16.50;69.40;;;;;;4996225;28;20057;-58
2022/05/31 04:55:00;;;;;;;8.02;5.55;;;16.50;69.50;;;;;;4995333;28;20069;-58
2022/05/31 04:57:26;;;;;;;8.23;5.55;;;16.50;69.40;;;;;;4994863;28;20364;-57
2022/05/31 04:59:52;;;;;;;6.22;5.63;;;16.50;69.30;;;;;;4994778;28;20034;-56
2022/05/31 05:02:18;;;;;;;7.28;4.90;;;16.50;69.30;;;;;;5004428;28;20033;-57
2022/05/31 05:04:43;;;;;;;7.40;5.10;;;16.50;69.40;;;;;;5000132;28;20026;-58
2022/05/31 05:07:09;;;;;;;7.38;5.40;;;16.50;69.50;;;;;;5005475;28;20045;-54
2022/05/31 05:09:35;;;;;;;8.57;5.05;;;16.50;69.50;;;;;;5014092;28;20053;-57
2022/05/31 05:12:00;;;;;;;9.32;5.22;;;16.50;69.60;;;;;;5010945;28;20022;-56
2022/05/31 05:14:26;;;;;;;7.22;5.13;;;16.50;69.70;;;;;;5012894;28;20109;-58
2022/05/31 05:16:53;;;;;;;10.25;5.22;;;16.50;69.90;;;;;;5004608;28;20054;-62
2022/05/31 05:19:18;;;;;;;9.52;5.22;;;16.50;69.90;;;;;;5010371;28;20076;-60
2022/05/31 05:21:44;;;;;;;11.07;4.97;;;16.50;70.00;;;;;;5013488;28;20434;-59
2022/05/31 05:24:09;;;;;;;6.25;4.30;;;16.50;70.30;;;;;;5013859;28;20029;-60
2022/05/31 05:26:36;;;;;;;7.40;4.65;;;16.50;70.40;;;;;;5011974;28;20503;-55
2022/05/31 05:31:46;;;;;;;6.25;4.70;;;16.50;70.20;;;;;;5012297;28;20041;-53
2022/05/31 05:34:12;;;;;;;11.27;4.57;;;16.50;70.10;;;;;;5013202;28;20042;-57
2022/05/31 05:36:37;;;;;;;7.18;4.93;;;16.50;70.20;;;;;;5013329;28;20022;-59
2022/05/31 05:39:04;;;;;;;8.18;5.20;;;16.50;70.10;;;;;;5010034;28;20025;-60
2022/05/31 05:41:30;;;;;;;5.63;4.95;;;16.50;70.30;;;;;;5008556;28;20042;-56
2022/05/31 05:43:56;;;;;;;8.02;5.40;;;16.50;70.30;;;;;;5012678;28;20037;-61
2022/05/31 05:46:24;;;;;;;9.00;5.18;;;16.50;70.10;;;;;;5009074;28;20030;-62
2022/05/31 05:48:51;;;;;;;9.95;5.05;;;16.60;70.10;;;;;;4986044;28;20041;-62
2022/05/31 05:51:18;;;;;;;7.45;4.70;;;16.60;70.20;;;;;;5009248;28;20085;-59
2022/05/31 05:53:44;;;;;;;11.18;5.15;;;16.60;70.20;;;;;;5011663;28;20030;-60
2022/05/31 05:56:10;;;;;;;10.90;6.03;;;16.60;70.80;;;;;;5011816;28;20026;-62
2022/05/31 05:58:36;;;;;;;9.13;5.40;;;16.50;71.00;;;;;;4988941;28;20031;-59
2022/05/31 06:01:04;;;;;;;12.23;6.28;;;16.50;71.70;;;;;;5005770;28;20441;-57
2022/05/31 06:03:51;;;;;;;11.05;5.47;;;16.50;71.80;;;;;;5010873;28;20034;-62
2022/05/31 06:06:17;;;;;;;7.97;4.72;;;16.50;71.90;;;;;;4991551;28;20135;-59
2022/05/31 06:09:02;;;;;;;7.57;4.85;;;16.50;72.40;;;;;;5006472;28;20025;-63
2022/05/31 06:11:36;;;;;;;4.43;3.97;;;16.50;72.00;;;;;;4996247;28;20037;-64
2022/05/31 06:14:14;;;;;;;9.30;5.22;;;16.50;72.20;;;;;;5012464;28;20041;-62
2022/05/31 06:16:44;;;;;;;7.55;4.70;;;16.50;71.70;;;;;;5010026;28;20029;-63
2022/05/31 06:19:15;;;;;;;10.23;5.85;;;16.60;71.80;;;;;;5011606;28;20494;-63
2022/05/31 06:21:43;;;;;;;10.85;5.80;;;16.60;72.80;;;;;;5011288;28;20402;-61
2022/05/31 06:24:09;;;;;;;8.23;5.40;;;16.60;71.70;;;;;;5012419;28;20225;-59
2022/05/31 06:26:35;;;;;;;9.50;5.68;;;16.60;71.60;;;;;;5012030;28;20034;-58
2022/05/31 06:29:00;;;;;;;8.07;4.97;;;16.70;71.40;;;;;;5012710;28;20383;-58
2022/05/31 06:31:26;;;;;;;8.23;5.25;;;16.70;72.10;;;;;;5013351;28;20038;-62
2022/05/31 06:33:51;;;;;;;7.22;4.70;;;16.70;72.70;;;;;;5012329;28;20191;-59
2022/05/31 06:36:17;;;;;;;11.90;5.38;;;16.70;73.00;;;;;;5012988;28;20110;-63
2022/05/31 06:38:42;;;;;;;9.00;5.85;;;16.80;73.40;;;;;;5013162;28;20455;-63
2022/05/31 06:41:08;;;;;;;8.13;4.78;;;16.80;73.20;;;;;;5007682;28;20543;-61
2022/05/31 06:43:34;;;;;;;10.50;3.90;;;16.90;73.10;;;;;;5012699;28;20038;-63
2022/05/31 06:46:10;;;;;;;10.15;5.07;;;16.90;73.10;;;;;;5007563;28;20033;-63
2022/05/31 06:48:36;;;;;;;7.93;4.10;;;17.00;73.10;;;;;;5012789;28;20026;-63
2022/05/31 06:51:06;;;;;;;9.82;4.35;;;17.00;72.20;;;;;;5012277;28;20029;-62
2022/05/31 06:58:51;;;;;;;10.68;3.25;;;17.20;70.40;;;;;;5008160;28;20053;-64
2022/05/31 07:01:16;;;;;;;9.05;3.83;;;17.20;71.50;;;;;;5008128;28;20034;-64
2022/05/31 07:03:42;;;;;;;9.15;4.28;;;17.20;71.60;;;;;;5006808;28;20026;-63
2022/05/31 07:06:07;;;;;;;9.32;3.80;;;17.20;71.50;;;;;;5011619;28;20490;-64
2022/05/31 07:08:33;;;;;;;10.70;3.40;;;17.30;71.50;;;;;;5010322;28;20116;-63
2022/05/31 07:11:01;;;;;;;10.05;3.55;;;17.30;71.80;;;;;;5009671;28;20471;-64
2022/05/31 07:13:26;;;;;;;8.02;2.88;;;17.30;71.70;;;;;;5010076;28;20534;-64
2022/05/31 07:15:52;;;;;;;8.05;2.88;;;17.30;71.90;;;;;;5015328;28;20073;-63
2022/05/31 07:18:19;;;;;;;8.73;2.50;;;17.40;72.00;;;;;;5016018;28;20113;-64
2022/05/31 07:20:45;;;;;;;10.18;3.22;;;17.40;72.00;;;;;;5012313;28;20045;-64
2022/05/31 07:23:11;;;;;;;6.18;3.17;;;17.40;72.30;;;;;;5000432;28;20026;-64
2022/05/31 07:25:37;;;;;;;8.18;3.65;;;17.40;71.90;;;;;;5016251;28;20038;-61
2022/05/31 07:28:02;;;;;;;9.27;4.38;;;17.50;72.10;;;;;;5015803;28;20083;-60
2022/05/31 07:30:28;;;;;;;10.27;5.18;;;17.50;72.30;;;;;;5007201;28;20019;-63
2022/05/31 07:32:54;;;;;;;8.45;4.50;;;17.60;72.40;;;;;;5014998;28;20545;-64
2022/05/31 07:35:19;;;;;;;12.25;3.17;;;17.60;72.40;;;;;;5006654;28;20403;-64
2022/05/31 07:37:45;;;;;;;3.75;2.40;;;17.60;72.30;;;;;;5010134;28;20049;-61
2022/05/31 07:40:11;;;;;;;6.95;3.20;;;17.60;72.30;;;;;;4991924;28;20052;-59
2022/05/31 07:42:37;;;;;;;6.25;4.43;;;17.60;72.40;;;;;;5012563;28;20029;-60
2022/05/31 07:45:03;;;;;;;9.43;6.68;;;17.70;72.70;;;;;;5009484;28;20030;-63
2022/05/31 07:47:30;;;;;;;9.75;5.32;;;17.70;72.70;;;;;;5009711;28;20101;-63
2022/05/31 07:49:56;;;;;;;6.82;3.90;;;17.80;72.50;;;;;;5003060;28;20076;-63
2022/05/31 07:52:22;;;;;;;7.80;3.47;;;17.90;72.50;;;;;;5006946;28;20054;-63
2022/05/31 07:54:48;;;;;;;5.45;2.55;;;17.80;72.10;;;;;;5003507;28;20040;-63
2022/05/31 07:59:58;;;;;;;9.55;3.80;;;17.90;71.80;;;;;;5013352;28;20045;-63
2022/05/31 08:02:23;;;;;;;8.40;4.57;;;17.90;71.50;;;;;;5002377;28;20034;-62
2022/05/31 08:04:49;;;;;;;6.15;3.90;;;18.00;71.00;;;;;;5010154;28;20088;-63
2022/05/31 08:07:15;;;;;;;6.50;3.10;;;18.10;71.40;;;;;;5001967;28;20026;-60
2022/05/31 08:09:40;;;;;;;7.88;3.70;;;18.10;71.10;;;;;;5007912;28;20026;-59
2022/05/31 08:12:12;;;;;;;10.98;5.22;;;18.10;70.30;;;;;;5001854;28;20376;-63
2022/05/31 08:14:38;;;;;;;7.43;3.80;;;18.20;67.90;;;;;;5002232;28;20032;-58
2022/05/31 08:17:04;;;;;;;6.22;4.25;;;18.30;67.60;;;;;;4997583;28;20030;-61
2022/05/31 08:19:30;;;;;;;7.82;3.17;;;18.30;68.20;;;;;;5008639;28;20080;-63
2022/05/31 08:21:57;;;;;;;3.25;2.17;;;18.30;69.30;;;;;;4985255;28;20410;-61
2022/05/31 08:24:23;;;;;;;4.32;2.47;;;18.40;69.90;;;;;;5006819;28;20034;-63
2022/05/31 08:26:49;;;;;;;4.10;2.47;;;18.40;69.90;;;;;;4998506;28;20034;-59
2022/05/31 08:29:16;;;;;;;5.97;2.50;;;18.40;70.10;;;;;;5010298;28;20037;-60
2022/05/31 08:31:41;;;;;;;4.32;2.78;;;18.40;69.80;;;;;;5000286;28;20103;-61
2022/05/31 08:34:08;;;;;;;5.70;3.17;;;18.50;68.60;;;;;;5011302;28;20093;-58
2022/05/31 08:36:34;;;;;;;8.07;3.15;;;18.50;66.80;;;;;;5004142;28;20029;-61
2022/05/31 08:39:00;;;;;;;5.63;3.03;;;18.60;68.40;;;;;;5012123;28;20049;-63
2022/05/31 08:41:28;;;;;;;4.30;2.53;;;18.60;68.70;;;;;;5002770;28;20041;-63
2022/05/31 08:44:16;;;;;;;7.70;2.70;;;18.70;69.00;;;;;;5012084;28;20014;-63
2022/05/31 08:47:00;;;;;;;5.10;2.58;;;18.70;68.80;;;;;;5008297;28;20034;-62
2022/05/31 08:52:56;;;;;;;4.22;2.35;;;18.80;68.20;;;;;;4999153;28;20084;-61
2022/05/31 08:58:19;;;;;;;5.05;2.60;;;18.80;67.80;;;;;;5013284;28;20103;-62
2022/05/31 09:00:48;;;;;;;5.43;2.67;;;18.90;65.20;;;;;;4999951;28;20027;-63
2022/05/31 09:03:20;;;;;;;3.83;2.35;;;18.90;65.30;;;;;;5010320;28;20044;-63
2022/05/31 09:05:52;;;;;;;8.88;2.75;;;19.00;66.20;;;;;;5004653;28;20030;-62
2022/05/31 09:08:28;;;;;;;8.88;2.42;;;19.00;66.00;;;;;;5008234;28;20084;-58
2022/05/31 09:11:20;;;;;;;5.15;2.45;;;19.00;66.20;;;;;;5002653;28;20093;-60
2022/05/31 09:14:03;;;;;;;5.97;2.50;;;19.10;66.40;;;;;;5005691;28;20064;-63
2022/05/31 09:16:54;;;;;;;4.20;2.20;;;19.10;65.50;;;;;;5011116;28;20042;-60
2022/05/31 09:19:58;;;;;;;4.43;2.10;;;19.20;66.00;;;;;;4999045;28;20132;-61
2022/05/31 09:22:24;;;;;;;4.57;2.78;;;19.10;65.60;;;;;;4989180;28;20403;-62
2022/05/31 09:24:49;;;;;;;6.53;2.28;;;19.20;64.90;;;;;;5001544;28;20490;-62
2022/05/31 09:27:24;;;;;;;3.20;1.90;;;19.20;64.70;;;;;;5001466;28;20543;-63
2022/05/31 09:30:01;;;;;;;3.70;1.75;;;19.30;65.30;;;;;;5007878;28;20391;-61
2022/05/31 09:32:57;;;;;;;5.43;2.25;;;19.30;64.80;;;;;;4997926;28;20475;-64
2022/05/31 09:35:46;;;;;;;4.47;2.10;;;19.30;64.90;;;;;;5001197;28;20490;-64
2022/05/31 09:38:24;;;;;;;4.03;1.95;;;19.30;64.50;;;;;;4995381;28;20513;-62
2022/05/31 09:41:13;;;;;;;3.50;1.80;;;19.30;64.40;;;;;;5002110;28;20053;-62
2022/05/31 09:43:53;;;;;;;5.40;1.73;;;19.40;64.70;;;;;;4971966;28;20045;-58
2022/05/31 09:46:33;;;;;;;4.85;1.67;;;19.40;64.50;;;;;;5001687;28;20037;-63
2022/05/31 09:48:59;;;;;;;6.68;1.60;;;19.40;63.80;;;;;;5003243;28;20030;-64
2022/05/31 09:51:27;;;;;;;5.95;1.30;;;19.40;63.80;;;;;;5006921;28;20470;-60
2022/05/31 09:59:27;;;;;;;5.30;1.30;;;19.50;63.40;;;;;;4994309;28;20464;-63
2022/05/31 10:01:52;;;;;;;3.20;1.63;;;19.50;62.70;;;;;;4999264;28;20109;-63
2022/05/31 10:04:31;;;;;;;3.03;1.42;;;19.60;62.20;;;;;;4995587;28;20173;-60
2022/05/31 10:07:04;;;;;;;4.88;1.30;;;19.60;62.40;;;;;;5004751;28;20117;-61
2022/05/31 10:09:36;;;;;;;5.80;1.63;;;19.60;62.40;;;;;;5008860;28;20026;-63
2022/05/31 10:12:12;;;;;;;4.32;1.17;;;19.60;62.40;;;;;;5002637;28;20026;-64
2022/05/31 10:14:43;;;;;;;4.28;1.40;;;19.60;62.30;;;;;;5011746;28;20083;-64
2022/05/31 10:17:35;;;;;;;3.08;1.40;;;19.60;62.10;;;;;;4993543;28;20042;-64
2022/05/31 10:20:14;;;;;;;4.27;1.07;;;19.60;62.40;;;;;;4987999;28;20235;-64
2022/05/31 10:23:04;;;;;;;3.22;1.10;;;19.60;61.90;;;;;;4999805;28;20190;-60
2022/05/31 10:25:35;;;;;;;2.45;1.00;;;19.70;62.40;;;;;;4997978;28;20033;-60
2022/05/31 10:28:03;;;;;;;3.45;1.33;;;19.70;61.90;;;;;;5002785;28;20047;-62
2022/05/31 10:30:30;;;;;;;2.47;0.90;;;19.70;62.20;;;;;;4993070;28;20041;-58
2022/05/31 10:33:16;;;;;;;2.83;1.10;;;19.70;61.60;;;;;;5010809;28;20026;-60
2022/05/31 10:35:43;;;;;;;4.70;1.17;;;19.80;61.90;;;;;;5011683;28;20395;-62
2022/05/31 10:38:17;;;;;;;2.00;1.02;;;19.70;61.30;;;;;;5008947;28;20037;-58
2022/05/31 10:41:07;;;;;;;3.65;1.00;;;19.80;61.50;;;;;;4992052;28;20129;-59
2022/05/31 10:43:38;;;;;;;2.33;0.65;;;19.80;61.70;;;;;;4982105;28;20122;-59
2022/05/31 10:46:31;;;;;;;4.35;0.98;;;19.80;61.00;;;;;;4990749;28;20089;-60
2022/05/31 10:49:01;;;;;;;3.05;1.02;;;19.80;60.70;;;;;;4992275;28;20044;-59
2022/05/31 10:51:45;;;;;;;2.75;0.93;;;19.80;60.40;;;;;;4996441;28;20049;-60
2022/05/31 10:54:27;;;;;;;2.05;0.90;;;19.90;60.90;;;;;;5007179;28;20052;-64
2022/05/31 10:57:21;;;;;;;2.05;1.05;;;19.90;60.50;;;;;;5006152;28;20104;-61
2022/05/31 10:59:53;;;;;;;2.72;1.13;;;19.90;60.70;;;;;;4996020;28;20061;-59
2022/05/31 11:02:37;;;;;;;1.83;0.80;;;19.90;60.00;;;;;;4995980;28;20056;-60
2022/05/31 11:05:06;;;;;;;3.15;0.98;;;19.90;60.60;;;;;;4995803;28;20087;-59
2022/05/31 11:13:59;;;;;;;2.42;0.90;;;20.00;60.10;;;;;;5015161;28;20036;-60
2022/05/31 11:17:05;;;;;;;2.78;1.08;;;20.00;60.00;;;;;;5014560;28;20034;-58
2022/05/31 11:19:51;;;;;;;2.65;0.90;;;20.00;60.20;;;;;;5015481;28;20029;-61
2022/05/31 11:22:38;;;;;;;2.55;1.00;;;20.10;57.50;;;;;;5010998;28;20074;-63
2022/05/31 11:25:17;;;;;;;2.13;0.93;;;20.10;59.50;;;;;;4977628;28;20415;-60
2022/05/31 11:28:05;;;;;;;3.70;1.17;;;20.10;59.00;;;;;;4998111;28;20057;-59
2022/05/31 11:30:53;;;;;;;3.45;0.73;;;20.10;58.90;;;;;;5001531;28;20026;-60
2022/05/31 11:33:53;;;;;;;3.20;1.17;;;20.10;58.50;;;;;;5015413;28;20080;-64
2022/05/31 11:36:40;;;;;;;3.33;1.15;;;20.10;58.30;;;;;;5004753;28;20042;-61
2022/05/31 11:39:31;;;;;;;3.97;0.70;;;20.20;57.70;;;;;;5008664;28;20260;-63
2022/05/31 11:42:03;;;;;;;1.55;0.70;;;20.20;58.80;;;;;;5001813;28;20053;-63
2022/05/31 11:44:59;;;;;;;2.75;0.82;;;20.20;58.80;;;;;;5012867;28;20029;-64
2022/05/31 11:47:57;;;;;;;2.38;0.90;;;20.20;58.30;;;;;;5011502;28;20022;-61
2022/05/31 11:50:44;;;;;;;3.65;0.68;;;20.20;58.90;;;;;;4999759;28;20089;-64
2022/05/31 11:53:42;;;;;;;3.03;1.23;;;20.30;58.30;;;;;;4986683;28;20022;-64
2022/05/31 11:56:14;;;;;;;5.40;1.13;;;20.30;58.30;;;;;;5008114;28;20021;-64
2022/05/31 11:58:39;;;;;;;;;;;20.30;57.00;;;;;;5004813;28;20027;-61
2022/05/31 12:01:17;;;;;;;3.80;0.80;;;20.20;56.30;;;;;;5011525;28;20283;-64
2022/05/31 12:04:00;;;;;;;3.25;1.30;;;20.30;55.60;;;;;;5014241;28;20060;-64
2022/05/31 12:06:29;;;;;;;2.63;1.00;;;20.30;55.60;;;;;;5007914;28;20273;-64
2022/05/31 12:09:15;;;;;;;3.33;1.00;;;20.30;55.50;;;;;;5008245;28;20064;-64
2022/05/31 12:11:51;;;;;;;2.33;1.05;;;20.30;55.50;;;;;;5004935;28;20467;-64
2022/05/31 12:14:19;;;;;;;2.42;0.70;;;20.30;55.10;;;;;;5010288;28;20426;-59
2022/05/31 12:16:46;;;;;;;3.28;1.10;;;20.30;54.90;;;;;;5007641;28;20029;-64
2022/05/31 12:19:22;;;;;;;3.08;1.00;;;20.30;55.00;;;;;;5013170;28;20026;-60
2022/05/31 12:22:02;;;;;;;3.85;0.98;;;20.40;55.60;;;;;;5014224;28;20113;-63
2022/05/31 12:24:38;;;;;;;2.22;0.90;;;20.40;55.50;;;;;;5010564;28;20029;-63
2022/05/31 12:27:04;;;;;;;2.53;0.77;;;20.40;55.60;;;;;;5007965;28;20033;-60
2022/05/31 12:29:54;;;;;;;2.13;1.05;;;20.40;55.40;;;;;;5010920;28;20022;-63
2022/05/31 12:32:29;;;;;;;2.75;0.90;;;20.40;56.00;;;;;;5013419;28;20046;-61
2022/05/31 12:35:00;;;;;;;2.85;1.30;;;20.50;55.80;;;;;;5014728;28;20030;-60
2022/05/31 12:37:46;;;;;;;2.40;0.90;;;20.50;55.20;;;;;;5013744;28;20081;-60
2022/05/31 12:40:41;;;;;;;1.85;0.60;;;20.50;55.20;;;;;;5013721;28;20046;-62
2022/05/31 12:43:14;;;;;;;2.50;0.80;;;20.50;56.10;;;;;;4983354;28;20065;-62
2022/05/31 12:45:42;;;;;;;1.17;0.60;;;20.50;55.70;;;;;;5005546;28;20022;-63
2022/05/31 12:48:17;;;;;;;2.65;0.52;;;20.50;55.50;;;;;;4995609;28;20037;-62
2022/05/31 12:50:50;;;;;;;2.25;0.80;;;20.50;55.70;;;;;;5010133;28;20433;-64
2022/05/31 12:53:35;;;;;;;2.78;0.90;;;20.60;55.90;;;;;;5005176;28;20050;-60
2022/05/31 12:56:00;;;;;;;2.25;0.60;;;20.50;56.40;;;;;;4995315;28;20562;-61
2022/05/31 12:58:39;;;;;;;1.83;0.75;;;20.60;55.80;;;;;;4999139;28;20125;-65
2022/05/31 13:01:11;;;;;;;1.52;0.50;;;20.60;55.80;;;;;;5013665;28;20427;-60
2022/05/31 13:03:42;;;;;;;1.70;0.47;;;20.60;55.90;;;;;;5001552;28;20085;-63
2022/05/31 13:06:15;;;;;;;3.22;0.93;;;20.60;56.10;;;;;;4995043;28;20021;-59
2022/05/31 13:20:39;;;;;;;2.42;0.90;;;20.70;56.20;;;;;;5000037;28;20133;-62
2022/05/31 13:23:24;;;;;;;2.42;0.80;;;20.80;55.80;;;;;;5001620;28;20064;-58
2022/05/31 13:26:02;;;;;;;2.03;0.93;;;20.80;56.20;;;;;;5007918;28;20021;-59
2022/05/31 13:28:29;;;;;;;1.65;0.45;;;20.70;55.70;;;;;;5012697;28;20041;-62
2022/05/31 13:31:21;;;;;;;1.23;0.50;;;20.80;55.80;;;;;;5002201;28;20034;-57
2022/05/31 13:33:57;;;;;;;1.77;0.50;;;20.80;56.60;;;;;;4985279;28;20038;-58
2022/05/31 13:36:31;;;;;;;2.15;0.60;;;20.80;56.40;;;;;;5003893;28;20129;-57
2022/05/31 13:39:09;;;;;;;2.13;0.50;;;20.80;56.10;;;;;;5001397;28;20086;-62
2022/05/31 13:41:50;;;;;;;3.35;0.60;;;20.90;56.60;;;;;;4995555;28;20120;-59
2022/05/31 13:44:28;;;;;;;1.33;0.55;;;20.90;56.50;;;;;;5011852;28;20017;-59
2022/05/31 13:46:57;;;;;;;2.25;0.77;;;20.90;56.20;;;;;;5012722;28;20525;-64
2022/05/31 13:49:41;;;;;;;3.58;0.73;;;20.90;55.00;;;;;;5012502;28;20034;-59
2022/05/31 13:52:28;;;;;;;1.70;0.63;;;20.90;55.50;;;;;;5012507;28;20076;-60